sensor_id;sensor_type;location;lat;lon;timestamp;P1;durP1;ratioP1;P2;durP2;ratioP2
29634;SDS011;16557;54.762;56.068;2023-02-22T00:02:03;9.78;;;5.75;;
29634;SDS011;16557;54.762;56.068;2023-02-22T00:04:40;10.20;;;5.58;;
29634;SDS011;16557;54.762;56.068;2023-02-22T00:07:09;12.80;;;6.37;;
29634;SDS011;16557;54.762;56.068;2023-02-22T00:09:38;12.10;;;6.92;;
29634;SDS011;16557;54.762;56.068;2023-02-22T00:12:07;10.28;;;5.60;;
29634;SDS011;16557;54.762;56.068;2023-02-22T00:14:37;8.65;;;5.75;;
29634;SDS011;16557;54.762;56.068;2023-02-22T00:17:06;8.75;;;4.75;;
29634;SDS011;16557;54.762;56.068;2023-02-22T00:19:36;9.80;;;5.45;;
29634;SDS011;16557;54.762;56.068;2023-02-22T00:22:05;11.25;;;6.22;;
29634;SDS011;16557;54.762;56.068;2023-02-22T00:24:34;12.07;;;6.20;;
29634;SDS011;16557;54.762;56.068;2023-02-22T00:27:03;12.25;;;6.83;;
29634;SDS011;16557;54.762;56.068;2023-02-22T00:29:32;11.53;;;6.75;;
29634;SDS011;16557;54.762;56.068;2023-02-22T00:32:02;11.75;;;6.25;;
29634;SDS011;16557;54.762;56.068;2023-02-22T00:34:32;11.35;;;6.28;;
29634;SDS011;16557;54.762;56.068;2023-02-22T00:37:01;11.97;;;6.72;;
29634;SDS011;16557;54.762;56.068;2023-02-22T00:39:30;10.82;;;6.37;;
29634;SDS011;16557;54.762;56.068;2023-02-22T00:42:00;11.50;;;6.08;;
29634;SDS011;16557;54.762;56.068;2023-02-22T00:44:30;13.43;;;7.45;;
29634;SDS011;16557;54.762;56.068;2023-02-22T00:46:59;10.82;;;5.72;;
29634;SDS011;16557;54.762;56.068;2023-02-22T00:49:30;10.75;;;6.35;;
29634;SDS011;16557;54.762;56.068;2023-02-22T00:51:59;10.60;;;5.45;;
29634;SDS011;16557;54.762;56.068;2023-02-22T00:54:29;11.25;;;6.50;;
29634;SDS011;16557;54.762;56.068;2023-02-22T00:56:58;20.32;;;10.70;;
29634;SDS011;16557;54.762;56.068;2023-02-22T00:59:28;18.98;;;8.83;;
29634;SDS011;16557;54.762;56.068;2023-02-22T01:01:57;18.55;;;10.63;;
29634;SDS011;16557;54.762;56.068;2023-02-22T01:04:26;22.50;;;12.00;;
29634;SDS011;16557;54.762;56.068;2023-02-22T01:06:56;27.17;;;13.75;;
29634;SDS011;16557;54.762;56.068;2023-02-22T01:09:26;23.40;;;13.40;;
29634;SDS011;16557;54.762;56.068;2023-02-22T01:11:56;24.32;;;12.75;;
29634;SDS011;16557;54.762;56.068;2023-02-22T01:14:25;20.92;;;11.60;;
29634;SDS011;16557;54.762;56.068;2023-02-22T01:16:55;25.88;;;13.85;;
29634;SDS011;16557;54.762;56.068;2023-02-22T01:19:24;28.05;;;14.58;;
29634;SDS011;16557;54.762;56.068;2023-02-22T01:21:53;22.75;;;13.30;;
29634;SDS011;16557;54.762;56.068;2023-02-22T01:24:22;23.73;;;13.98;;
29634;SDS011;16557;54.762;56.068;2023-02-22T01:26:52;26.20;;;13.43;;
29634;SDS011;16557;54.762;56.068;2023-02-22T01:29:21;24.55;;;13.28;;
29634;SDS011;16557;54.762;56.068;2023-02-22T01:31:52;28.52;;;14.53;;
29634;SDS011;16557;54.762;56.068;2023-02-22T01:34:23;29.95;;;14.43;;
29634;SDS011;16557;54.762;56.068;2023-02-22T01:36:52;29.45;;;15.68;;
29634;SDS011;16557;54.762;56.068;2023-02-22T01:39:23;27.07;;;14.58;;
29634;SDS011;16557;54.762;56.068;2023-02-22T01:41:52;26.07;;;14.15;;
29634;SDS011;16557;54.762;56.068;2023-02-22T01:44:32;28.05;;;15.10;;
29634;SDS011;16557;54.762;56.068;2023-02-22T01:47:03;26.80;;;15.08;;
29634;SDS011;16557;54.762;56.068;2023-02-22T01:52:06;29.67;;;15.10;;
29634;SDS011;16557;54.762;56.068;2023-02-22T01:54:42;30.02;;;14.80;;
29634;SDS011;16557;54.762;56.068;2023-02-22T01:57:19;30.95;;;15.58;;
29634;SDS011;16557;54.762;56.068;2023-02-22T01:59:53;28.00;;;15.28;;
29634;SDS011;16557;54.762;56.068;2023-02-22T02:02:22;32.00;;;15.13;;
29634;SDS011;16557;54.762;56.068;2023-02-22T02:04:52;29.42;;;15.15;;
29634;SDS011;16557;54.762;56.068;2023-02-22T02:07:22;30.25;;;14.13;;
29634;SDS011;16557;54.762;56.068;2023-02-22T02:09:53;29.02;;;15.20;;
29634;SDS011;16557;54.762;56.068;2023-02-22T02:12:26;34.27;;;16.27;;
29634;SDS011;16557;54.762;56.068;2023-02-22T02:17:46;27.25;;;15.25;;
29634;SDS011;16557;54.762;56.068;2023-02-22T02:20:18;32.10;;;16.05;;
29634;SDS011;16557;54.762;56.068;2023-02-22T02:33:56;34.92;;;15.63;;
29634;SDS011;16557;54.762;56.068;2023-02-22T02:36:33;27.60;;;14.40;;
29634;SDS011;16557;54.762;56.068;2023-02-22T02:39:11;25.08;;;14.33;;
29634;SDS011;16557;54.762;56.068;2023-02-22T02:41:48;33.53;;;16.20;;
29634;SDS011;16557;54.762;56.068;2023-02-22T02:44:30;30.12;;;17.02;;
29634;SDS011;16557;54.762;56.068;2023-02-22T02:47:03;28.75;;;15.75;;
29634;SDS011;16557;54.762;56.068;2023-02-22T02:49:39;31.48;;;14.55;;
29634;SDS011;16557;54.762;56.068;2023-02-22T02:52:12;30.68;;;15.13;;
29634;SDS011;16557;54.762;56.068;2023-02-22T02:54:44;42.35;;;22.87;;
29634;SDS011;16557;54.762;56.068;2023-02-22T02:57:14;31.82;;;17.65;;
29634;SDS011;16557;54.762;56.068;2023-02-22T02:59:43;31.57;;;16.27;;
29634;SDS011;16557;54.762;56.068;2023-02-22T03:05:09;31.40;;;15.85;;
29634;SDS011;16557;54.762;56.068;2023-02-22T03:07:49;29.07;;;15.32;;
29634;SDS011;16557;54.762;56.068;2023-02-22T03:10:44;27.07;;;16.37;;
29634;SDS011;16557;54.762;56.068;2023-02-22T03:16:14;31.60;;;15.78;;
29634;SDS011;16557;54.762;56.068;2023-02-22T03:24:29;28.90;;;13.98;;
29634;SDS011;16557;54.762;56.068;2023-02-22T03:27:00;24.07;;;12.35;;
29634;SDS011;16557;54.762;56.068;2023-02-22T03:29:31;29.10;;;13.55;;
29634;SDS011;16557;54.762;56.068;2023-02-22T03:32:04;27.50;;;13.60;;
29634;SDS011;16557;54.762;56.068;2023-02-22T03:34:40;24.53;;;12.70;;
29634;SDS011;16557;54.762;56.068;2023-02-22T03:37:16;25.12;;;13.65;;
29634;SDS011;16557;54.762;56.068;2023-02-22T03:39:45;28.47;;;14.35;;
29634;SDS011;16557;54.762;56.068;2023-02-22T03:42:19;31.30;;;14.40;;
29634;SDS011;16557;54.762;56.068;2023-02-22T03:44:52;25.45;;;13.18;;
29634;SDS011;16557;54.762;56.068;2023-02-22T03:47:27;26.55;;;13.30;;
29634;SDS011;16557;54.762;56.068;2023-02-22T03:50:02;27.65;;;15.38;;
29634;SDS011;16557;54.762;56.068;2023-02-22T03:52:37;23.55;;;12.95;;
29634;SDS011;16557;54.762;56.068;2023-02-22T03:55:07;24.60;;;12.95;;
29634;SDS011;16557;54.762;56.068;2023-02-22T03:57:39;20.70;;;11.73;;
29634;SDS011;16557;54.762;56.068;2023-02-22T04:00:10;22.15;;;12.60;;
29634;SDS011;16557;54.762;56.068;2023-02-22T04:02:41;22.17;;;11.90;;
29634;SDS011;16557;54.762;56.068;2023-02-22T04:05:11;24.05;;;12.70;;
29634;SDS011;16557;54.762;56.068;2023-02-22T04:07:41;27.05;;;12.95;;
29634;SDS011;16557;54.762;56.068;2023-02-22T04:10:10;25.57;;;12.10;;
29634;SDS011;16557;54.762;56.068;2023-02-22T04:12:41;21.07;;;11.97;;
29634;SDS011;16557;54.762;56.068;2023-02-22T04:15:12;21.68;;;11.75;;
29634;SDS011;16557;54.762;56.068;2023-02-22T04:17:42;20.82;;;11.00;;
29634;SDS011;16557;54.762;56.068;2023-02-22T04:20:11;21.50;;;11.43;;
29634;SDS011;16557;54.762;56.068;2023-02-22T04:22:41;19.48;;;11.18;;
29634;SDS011;16557;54.762;56.068;2023-02-22T04:25:10;18.27;;;10.88;;
29634;SDS011;16557;54.762;56.068;2023-02-22T04:27:39;19.52;;;10.80;;
29634;SDS011;16557;54.762;56.068;2023-02-22T04:30:08;19.82;;;10.95;;
29634;SDS011;16557;54.762;56.068;2023-02-22T04:32:38;19.30;;;10.53;;
29634;SDS011;16557;54.762;56.068;2023-02-22T04:35:08;19.60;;;11.30;;
29634;SDS011;16557;54.762;56.068;2023-02-22T04:37:37;19.95;;;10.85;;
29634;SDS011;16557;54.762;56.068;2023-02-22T04:40:06;20.08;;;11.05;;
29634;SDS011;16557;54.762;56.068;2023-02-22T04:42:38;19.92;;;10.80;;
29634;SDS011;16557;54.762;56.068;2023-02-22T04:45:08;19.02;;;11.35;;
29634;SDS011;16557;54.762;56.068;2023-02-22T04:47:37;18.50;;;10.30;;
29634;SDS011;16557;54.762;56.068;2023-02-22T04:50:07;20.82;;;10.63;;
29634;SDS011;16557;54.762;56.068;2023-02-22T04:52:38;17.98;;;10.55;;
29634;SDS011;16557;54.762;56.068;2023-02-22T04:55:08;21.02;;;11.33;;
29634;SDS011;16557;54.762;56.068;2023-02-22T04:57:38;20.17;;;11.68;;
29634;SDS011;16557;54.762;56.068;2023-02-22T05:00:08;20.05;;;11.48;;
29634;SDS011;16557;54.762;56.068;2023-02-22T05:02:37;27.42;;;12.28;;
29634;SDS011;16557;54.762;56.068;2023-02-22T05:05:07;22.22;;;11.78;;
29634;SDS011;16557;54.762;56.068;2023-02-22T05:07:37;22.40;;;11.38;;
29634;SDS011;16557;54.762;56.068;2023-02-22T05:10:06;19.42;;;11.48;;
29634;SDS011;16557;54.762;56.068;2023-02-22T05:12:36;22.95;;;13.22;;
29634;SDS011;16557;54.762;56.068;2023-02-22T05:15:06;24.82;;;12.33;;
29634;SDS011;16557;54.762;56.068;2023-02-22T05:17:35;24.57;;;12.33;;
29634;SDS011;16557;54.762;56.068;2023-02-22T05:20:05;23.45;;;13.00;;
29634;SDS011;16557;54.762;56.068;2023-02-22T05:22:34;22.42;;;12.45;;
29634;SDS011;16557;54.762;56.068;2023-02-22T05:25:04;25.85;;;11.95;;
29634;SDS011;16557;54.762;56.068;2023-02-22T05:27:33;22.65;;;11.70;;
29634;SDS011;16557;54.762;56.068;2023-02-22T05:30:03;23.92;;;12.75;;
29634;SDS011;16557;54.762;56.068;2023-02-22T05:32:34;24.25;;;12.40;;
29634;SDS011;16557;54.762;56.068;2023-02-22T05:35:04;20.48;;;12.28;;
29634;SDS011;16557;54.762;56.068;2023-02-22T05:37:34;19.32;;;11.68;;
29634;SDS011;16557;54.762;56.068;2023-02-22T05:40:04;21.97;;;11.83;;
29634;SDS011;16557;54.762;56.068;2023-02-22T05:42:34;17.45;;;10.45;;
29634;SDS011;16557;54.762;56.068;2023-02-22T05:45:03;16.97;;;10.38;;
29634;SDS011;16557;54.762;56.068;2023-02-22T05:47:33;19.42;;;10.08;;
29634;SDS011;16557;54.762;56.068;2023-02-22T05:50:02;17.45;;;9.70;;
29634;SDS011;16557;54.762;56.068;2023-02-22T05:52:31;17.45;;;9.15;;
29634;SDS011;16557;54.762;56.068;2023-02-22T05:55:01;20.17;;;10.50;;
29634;SDS011;16557;54.762;56.068;2023-02-22T05:57:30;14.03;;;8.58;;
29634;SDS011;16557;54.762;56.068;2023-02-22T06:00:00;15.95;;;8.90;;
29634;SDS011;16557;54.762;56.068;2023-02-22T06:02:32;12.45;;;8.85;;
29634;SDS011;16557;54.762;56.068;2023-02-22T06:05:01;14.47;;;8.28;;
29634;SDS011;16557;54.762;56.068;2023-02-22T06:07:30;14.75;;;8.28;;
29634;SDS011;16557;54.762;56.068;2023-02-22T06:10:00;12.70;;;7.60;;
29634;SDS011;16557;54.762;56.068;2023-02-22T06:12:29;11.88;;;7.53;;
29634;SDS011;16557;54.762;56.068;2023-02-22T06:14:59;11.65;;;7.65;;
29634;SDS011;16557;54.762;56.068;2023-02-22T06:17:29;11.45;;;7.05;;
29634;SDS011;16557;54.762;56.068;2023-02-22T06:20:03;9.00;;;6.03;;
29634;SDS011;16557;54.762;56.068;2023-02-22T06:22:32;11.55;;;6.65;;
29634;SDS011;16557;54.762;56.068;2023-02-22T06:25:01;8.25;;;5.58;;
29634;SDS011;16557;54.762;56.068;2023-02-22T06:27:32;8.18;;;5.58;;
29634;SDS011;16557;54.762;56.068;2023-02-22T06:30:01;9.65;;;5.53;;
29634;SDS011;16557;54.762;56.068;2023-02-22T06:32:30;7.90;;;5.58;;
29634;SDS011;16557;54.762;56.068;2023-02-22T06:35:00;8.40;;;5.20;;
29634;SDS011;16557;54.762;56.068;2023-02-22T06:37:29;7.20;;;4.72;;
29634;SDS011;16557;54.762;56.068;2023-02-22T06:39:58;6.30;;;4.12;;
29634;SDS011;16557;54.762;56.068;2023-02-22T06:42:27;8.35;;;4.85;;
29634;SDS011;16557;54.762;56.068;2023-02-22T06:44:56;6.97;;;4.50;;
29634;SDS011;16557;54.762;56.068;2023-02-22T06:47:26;7.75;;;4.35;;
29634;SDS011;16557;54.762;56.068;2023-02-22T06:49:56;6.62;;;4.00;;
29634;SDS011;16557;54.762;56.068;2023-02-22T06:52:27;6.15;;;3.90;;
29634;SDS011;16557;54.762;56.068;2023-02-22T06:54:56;8.83;;;4.00;;
29634;SDS011;16557;54.762;56.068;2023-02-22T06:57:25;5.05;;;3.35;;
29634;SDS011;16557;54.762;56.068;2023-02-22T06:59:54;6.10;;;3.60;;
29634;SDS011;16557;54.762;56.068;2023-02-22T07:02:23;6.08;;;3.45;;
29634;SDS011;16557;54.762;56.068;2023-02-22T07:04:53;4.47;;;2.70;;
29634;SDS011;16557;54.762;56.068;2023-02-22T07:07:22;5.40;;;3.45;;
29634;SDS011;16557;54.762;56.068;2023-02-22T07:09:51;6.80;;;3.45;;
29634;SDS011;16557;54.762;56.068;2023-02-22T07:12:20;7.25;;;3.35;;
29634;SDS011;16557;54.762;56.068;2023-02-22T07:14:53;3.95;;;2.33;;
29634;SDS011;16557;54.762;56.068;2023-02-22T07:17:22;3.33;;;2.47;;
29634;SDS011;16557;54.762;56.068;2023-02-22T07:19:51;4.78;;;2.55;;
29634;SDS011;16557;54.762;56.068;2023-02-22T07:22:20;4.20;;;2.30;;
29634;SDS011;16557;54.762;56.068;2023-02-22T07:24:50;4.20;;;1.95;;
29634;SDS011;16557;54.762;56.068;2023-02-22T07:27:19;4.20;;;2.50;;
29634;SDS011;16557;54.762;56.068;2023-02-22T07:29:48;3.12;;;2.22;;
29634;SDS011;16557;54.762;56.068;2023-02-22T07:32:18;3.10;;;1.98;;
29634;SDS011;16557;54.762;56.068;2023-02-22T07:34:47;3.70;;;2.60;;
29634;SDS011;16557;54.762;56.068;2023-02-22T07:37:16;5.60;;;2.65;;
29634;SDS011;16557;54.762;56.068;2023-02-22T07:39:45;4.35;;;2.40;;
29634;SDS011;16557;54.762;56.068;2023-02-22T07:42:14;4.47;;;2.70;;
29634;SDS011;16557;54.762;56.068;2023-02-22T07:44:44;6.37;;;2.87;;
29634;SDS011;16557;54.762;56.068;2023-02-22T07:47:13;4.10;;;1.80;;
29634;SDS011;16557;54.762;56.068;2023-02-22T07:49:45;3.45;;;2.08;;
29634;SDS011;16557;54.762;56.068;2023-02-22T07:52:14;3.30;;;2.22;;
29634;SDS011;16557;54.762;56.068;2023-02-22T07:54:44;5.05;;;2.35;;
29634;SDS011;16557;54.762;56.068;2023-02-22T07:57:14;3.72;;;2.33;;
29634;SDS011;16557;54.762;56.068;2023-02-22T07:59:44;3.50;;;2.52;;
29634;SDS011;16557;54.762;56.068;2023-02-22T08:02:15;3.83;;;2.25;;
29634;SDS011;16557;54.762;56.068;2023-02-22T08:04:44;4.65;;;2.40;;
29634;SDS011;16557;54.762;56.068;2023-02-22T08:07:14;3.10;;;2.22;;
29634;SDS011;16557;54.762;56.068;2023-02-22T08:09:43;5.53;;;2.83;;
29634;SDS011;16557;54.762;56.068;2023-02-22T08:12:12;3.75;;;2.37;;
29634;SDS011;16557;54.762;56.068;2023-02-22T08:14:42;4.95;;;2.65;;
29634;SDS011;16557;54.762;56.068;2023-02-22T08:17:11;4.05;;;2.25;;
29634;SDS011;16557;54.762;56.068;2023-02-22T08:19:41;3.33;;;2.00;;
29634;SDS011;16557;54.762;56.068;2023-02-22T08:22:10;4.87;;;2.40;;
29634;SDS011;16557;54.762;56.068;2023-02-22T08:24:39;4.10;;;2.35;;
29634;SDS011;16557;54.762;56.068;2023-02-22T08:27:08;3.27;;;2.20;;
29634;SDS011;16557;54.762;56.068;2023-02-22T08:29:37;3.70;;;2.33;;
29634;SDS011;16557;54.762;56.068;2023-02-22T08:32:06;3.75;;;2.30;;
29634;SDS011;16557;54.762;56.068;2023-02-22T08:34:36;4.28;;;2.77;;
29634;SDS011;16557;54.762;56.068;2023-02-22T08:37:05;3.45;;;2.37;;
29634;SDS011;16557;54.762;56.068;2023-02-22T08:39:34;3.75;;;2.12;;
29634;SDS011;16557;54.762;56.068;2023-02-22T08:42:04;4.80;;;2.17;;
29634;SDS011;16557;54.762;56.068;2023-02-22T08:44:41;3.72;;;2.12;;
29634;SDS011;16557;54.762;56.068;2023-02-22T08:47:09;6.22;;;2.75;;
29634;SDS011;16557;54.762;56.068;2023-02-22T08:49:38;10.45;;;7.00;;
29634;SDS011;16557;54.762;56.068;2023-02-22T08:52:08;3.98;;;2.58;;
29634;SDS011;16557;54.762;56.068;2023-02-22T08:54:37;5.95;;;3.83;;
29634;SDS011;16557;54.762;56.068;2023-02-22T08:57:07;9.33;;;7.67;;
29634;SDS011;16557;54.762;56.068;2023-02-22T08:59:36;8.43;;;6.28;;
29634;SDS011;16557;54.762;56.068;2023-02-22T09:02:09;6.40;;;3.90;;
29634;SDS011;16557;54.762;56.068;2023-02-22T09:04:37;4.40;;;2.90;;
29634;SDS011;16557;54.762;56.068;2023-02-22T09:07:07;5.20;;;3.52;;
29634;SDS011;16557;54.762;56.068;2023-02-22T09:09:36;5.35;;;3.08;;
29634;SDS011;16557;54.762;56.068;2023-02-22T09:12:05;3.87;;;2.52;;
29634;SDS011;16557;54.762;56.068;2023-02-22T09:14:35;4.55;;;3.25;;
29634;SDS011;16557;54.762;56.068;2023-02-22T09:17:04;9.10;;;5.10;;
29634;SDS011;16557;54.762;56.068;2023-02-22T09:19:33;7.08;;;5.10;;
29634;SDS011;16557;54.762;56.068;2023-02-22T09:22:03;7.33;;;5.03;;
29634;SDS011;16557;54.762;56.068;2023-02-22T09:24:32;13.22;;;8.35;;
29634;SDS011;16557;54.762;56.068;2023-02-22T09:27:02;5.83;;;4.35;;
29634;SDS011;16557;54.762;56.068;2023-02-22T09:29:33;5.87;;;4.12;;
29634;SDS011;16557;54.762;56.068;2023-02-22T09:32:03;5.83;;;3.60;;
29634;SDS011;16557;54.762;56.068;2023-02-22T09:34:32;5.33;;;3.45;;
29634;SDS011;16557;54.762;56.068;2023-02-22T09:37:01;4.50;;;2.90;;
29634;SDS011;16557;54.762;56.068;2023-02-22T09:39:32;6.10;;;3.52;;
29634;SDS011;16557;54.762;56.068;2023-02-22T09:42:15;4.58;;;3.08;;
29634;SDS011;16557;54.762;56.068;2023-02-22T09:47:23;4.58;;;3.17;;
29634;SDS011;16557;54.762;56.068;2023-02-22T09:50:08;6.00;;;4.03;;
29634;SDS011;16557;54.762;56.068;2023-02-22T10:00:57;8.13;;;6.12;;
29634;SDS011;16557;54.762;56.068;2023-02-22T10:06:23;7.97;;;5.83;;
29634;SDS011;16557;54.762;56.068;2023-02-22T10:08:53;9.83;;;8.15;;
29634;SDS011;16557;54.762;56.068;2023-02-22T10:16:51;11.22;;;7.37;;
29634;SDS011;16557;54.762;56.068;2023-02-22T10:25:00;10.55;;;6.30;;
29634;SDS011;16557;54.762;56.068;2023-02-22T10:28:01;9.28;;;7.05;;
29634;SDS011;16557;54.762;56.068;2023-02-22T10:30:41;8.68;;;6.45;;
29634;SDS011;16557;54.762;56.068;2023-02-22T10:35:53;6.67;;;5.50;;
29634;SDS011;16557;54.762;56.068;2023-02-22T10:38:28;10.00;;;5.20;;
29634;SDS011;16557;54.762;56.068;2023-02-22T10:41:00;5.83;;;3.27;;
29634;SDS011;16557;54.762;56.068;2023-02-22T10:43:30;6.28;;;3.27;;
29634;SDS011;16557;54.762;56.068;2023-02-22T10:46:00;7.37;;;2.87;;
29634;SDS011;16557;54.762;56.068;2023-02-22T10:48:31;7.37;;;3.25;;
29634;SDS011;16557;54.762;56.068;2023-02-22T10:51:04;4.45;;;2.40;;
29634;SDS011;16557;54.762;56.068;2023-02-22T10:53:35;5.47;;;2.80;;
29634;SDS011;16557;54.762;56.068;2023-02-22T10:56:17;2.45;;;1.65;;
29634;SDS011;16557;54.762;56.068;2023-02-22T10:58:49;5.47;;;2.65;;
29634;SDS011;16557;54.762;56.068;2023-02-22T11:01:27;4.37;;;1.90;;
29634;SDS011;16557;54.762;56.068;2023-02-22T11:06:43;2.55;;;1.55;;
29634;SDS011;16557;54.762;56.068;2023-02-22T11:09:18;1.98;;;1.25;;
29634;SDS011;16557;54.762;56.068;2023-02-22T11:12:08;3.22;;;1.60;;
29634;SDS011;16557;54.762;56.068;2023-02-22T11:14:38;1.80;;;1.20;;
29634;SDS011;16557;54.762;56.068;2023-02-22T11:17:31;2.92;;;1.80;;
29634;SDS011;16557;54.762;56.068;2023-02-22T11:19:59;8.58;;;3.37;;
29634;SDS011;16557;54.762;56.068;2023-02-22T11:22:36;3.62;;;1.45;;
29634;SDS011;16557;54.762;56.068;2023-02-22T11:25:04;3.62;;;1.92;;
29634;SDS011;16557;54.762;56.068;2023-02-22T11:27:38;3.12;;;1.87;;
29634;SDS011;16557;54.762;56.068;2023-02-22T11:30:18;3.50;;;1.42;;
29634;SDS011;16557;54.762;56.068;2023-02-22T11:32:49;2.08;;;1.22;;
29634;SDS011;16557;54.762;56.068;2023-02-22T11:38:14;3.27;;;1.72;;
29634;SDS011;16557;54.762;56.068;2023-02-22T11:41:03;2.58;;;1.55;;
29634;SDS011;16557;54.762;56.068;2023-02-22T11:43:34;2.65;;;1.70;;
29634;SDS011;16557;54.762;56.068;2023-02-22T11:46:08;3.50;;;1.90;;
29634;SDS011;16557;54.762;56.068;2023-02-22T11:48:40;3.30;;;1.92;;
29634;SDS011;16557;54.762;56.068;2023-02-22T11:56:24;3.77;;;2.08;;
29634;SDS011;16557;54.762;56.068;2023-02-22T11:59:19;3.15;;;1.85;;
29634;SDS011;16557;54.762;56.068;2023-02-22T12:05:11;3.58;;;2.25;;
29634;SDS011;16557;54.762;56.068;2023-02-22T12:13:31;10.75;;;7.78;;
29634;SDS011;16557;54.762;56.068;2023-02-22T12:16:14;16.02;;;11.85;;
29634;SDS011;16557;54.762;56.068;2023-02-22T12:21:26;14.35;;;11.05;;
29634;SDS011;16557;54.762;56.068;2023-02-22T12:23:58;14.53;;;11.15;;
29634;SDS011;16557;54.762;56.068;2023-02-22T12:26:44;13.15;;;9.00;;
29634;SDS011;16557;54.762;56.068;2023-02-22T12:29:12;6.80;;;5.08;;
29634;SDS011;16557;54.762;56.068;2023-02-22T12:31:46;6.78;;;5.03;;
29634;SDS011;16557;54.762;56.068;2023-02-22T12:34:35;6.60;;;4.03;;
29634;SDS011;16557;54.762;56.068;2023-02-22T12:37:15;6.28;;;4.28;;
29634;SDS011;16557;54.762;56.068;2023-02-22T12:39:57;5.08;;;2.15;;
29634;SDS011;16557;54.762;56.068;2023-02-22T12:45:37;3.02;;;2.00;;
29634;SDS011;16557;54.762;56.068;2023-02-22T12:50:54;6.33;;;3.47;;
29634;SDS011;16557;54.762;56.068;2023-02-22T12:53:27;3.27;;;2.50;;
29634;SDS011;16557;54.762;56.068;2023-02-22T13:01:52;4.87;;;2.50;;
29634;SDS011;16557;54.762;56.068;2023-02-22T13:04:08;3.98;;;2.70;;
29634;SDS011;16557;54.762;56.068;2023-02-22T13:06:44;7.47;;;3.50;;
29634;SDS011;16557;54.762;56.068;2023-02-22T13:17:51;3.87;;;2.30;;
29634;SDS011;16557;54.762;56.068;2023-02-22T13:20:42;3.45;;;2.12;;
29634;SDS011;16557;54.762;56.068;2023-02-22T13:23:30;4.37;;;2.50;;
29634;SDS011;16557;54.762;56.068;2023-02-22T13:26:10;3.47;;;2.12;;
29634;SDS011;16557;54.762;56.068;2023-02-22T13:28:42;4.53;;;2.62;;
29634;SDS011;16557;54.762;56.068;2023-02-22T13:31:21;3.65;;;1.70;;
29634;SDS011;16557;54.762;56.068;2023-02-22T13:51:10;4.28;;;2.58;;
29634;SDS011;16557;54.762;56.068;2023-02-22T13:56:28;6.40;;;2.95;;
29634;SDS011;16557;54.762;56.068;2023-02-22T13:58:54;5.40;;;2.90;;
29634;SDS011;16557;54.762;56.068;2023-02-22T14:06:56;5.55;;;3.25;;
29634;SDS011;16557;54.762;56.068;2023-02-22T14:15:12;5.25;;;2.95;;
29634;SDS011;16557;54.762;56.068;2023-02-22T14:17:45;6.12;;;3.17;;
29634;SDS011;16557;54.762;56.068;2023-02-22T14:22:51;7.05;;;4.00;;
29634;SDS011;16557;54.762;56.068;2023-02-22T14:28:36;5.30;;;3.25;;
29634;SDS011;16557;54.762;56.068;2023-02-22T14:30:38;7.42;;;3.62;;
29634;SDS011;16557;54.762;56.068;2023-02-22T14:35:56;5.47;;;3.52;;
29634;SDS011;16557;54.762;56.068;2023-02-22T14:38:27;7.03;;;3.40;;
29634;SDS011;16557;54.762;56.068;2023-02-22T14:40:58;7.15;;;3.92;;
29634;SDS011;16557;54.762;56.068;2023-02-22T14:43:28;7.78;;;4.10;;
29634;SDS011;16557;54.762;56.068;2023-02-22T14:45:58;5.17;;;3.30;;
29634;SDS011;16557;54.762;56.068;2023-02-22T14:48:35;7.10;;;3.87;;
29634;SDS011;16557;54.762;56.068;2023-02-22T14:53:53;6.42;;;3.72;;
29634;SDS011;16557;54.762;56.068;2023-02-22T14:56:41;6.30;;;3.52;;
29634;SDS011;16557;54.762;56.068;2023-02-22T14:59:18;8.05;;;3.80;;
29634;SDS011;16557;54.762;56.068;2023-02-22T15:01:46;5.15;;;3.35;;
29634;SDS011;16557;54.762;56.068;2023-02-22T15:06:52;8.15;;;4.00;;
29634;SDS011;16557;54.762;56.068;2023-02-22T15:09:25;6.60;;;3.58;;
29634;SDS011;16557;54.762;56.068;2023-02-22T15:12:10;7.40;;;3.85;;
29634;SDS011;16557;54.762;56.068;2023-02-22T15:14:34;7.03;;;4.40;;
29634;SDS011;16557;54.762;56.068;2023-02-22T15:17:08;5.25;;;4.00;;
29634;SDS011;16557;54.762;56.068;2023-02-22T15:19:53;6.80;;;4.30;;
29634;SDS011;16557;54.762;56.068;2023-02-22T15:22:23;6.78;;;3.58;;
29634;SDS011;16557;54.762;56.068;2023-02-22T15:24:58;9.53;;;5.28;;
29634;SDS011;16557;54.762;56.068;2023-02-22T15:27:29;7.55;;;4.83;;
29634;SDS011;16557;54.762;56.068;2023-02-22T15:30:02;9.30;;;4.97;;
29634;SDS011;16557;54.762;56.068;2023-02-22T15:32:33;10.08;;;4.92;;
29634;SDS011;16557;54.762;56.068;2023-02-22T15:35:14;9.43;;;5.67;;
29634;SDS011;16557;54.762;56.068;2023-02-22T15:37:45;8.88;;;5.95;;
29634;SDS011;16557;54.762;56.068;2023-02-22T15:43:06;7.28;;;5.83;;
29634;SDS011;16557;54.762;56.068;2023-02-22T15:45:35;14.73;;;6.95;;
29634;SDS011;16557;54.762;56.068;2023-02-22T15:48:07;8.28;;;6.72;;
29634;SDS011;16557;54.762;56.068;2023-02-22T15:53:36;12.78;;;6.87;;
29634;SDS011;16557;54.762;56.068;2023-02-22T15:56:17;10.25;;;6.60;;
29634;SDS011;16557;54.762;56.068;2023-02-22T15:58:44;10.28;;;5.35;;
29634;SDS011;16557;54.762;56.068;2023-02-22T16:01:15;5.53;;;3.85;;
29634;SDS011;16557;54.762;56.068;2023-02-22T16:03:46;7.22;;;4.92;;
29634;SDS011;16557;54.762;56.068;2023-02-22T16:09:22;9.70;;;5.00;;
29634;SDS011;16557;54.762;56.068;2023-02-22T16:14:50;9.48;;;5.75;;
29634;SDS011;16557;54.762;56.068;2023-02-22T16:22:45;13.98;;;7.97;;
29634;SDS011;16557;54.762;56.068;2023-02-22T16:28:03;10.80;;;7.90;;
29634;SDS011;16557;54.762;56.068;2023-02-22T16:30:34;13.45;;;8.15;;
29634;SDS011;16557;54.762;56.068;2023-02-22T16:33:06;11.25;;;7.72;;
29634;SDS011;16557;54.762;56.068;2023-02-22T16:35:38;9.90;;;7.15;;
29634;SDS011;16557;54.762;56.068;2023-02-22T16:38:09;10.25;;;6.22;;
29634;SDS011;16557;54.762;56.068;2023-02-22T16:40:41;8.60;;;6.25;;
29634;SDS011;16557;54.762;56.068;2023-02-22T16:43:25;10.00;;;6.03;;
29634;SDS011;16557;54.762;56.068;2023-02-22T16:45:57;11.15;;;6.67;;
29634;SDS011;16557;54.762;56.068;2023-02-22T16:48:29;9.13;;;6.25;;
29634;SDS011;16557;54.762;56.068;2023-02-22T16:51:06;9.58;;;5.87;;
29634;SDS011;16557;54.762;56.068;2023-02-22T16:53:39;11.40;;;7.28;;
29634;SDS011;16557;54.762;56.068;2023-02-22T16:56:09;11.38;;;6.67;;
29634;SDS011;16557;54.762;56.068;2023-02-22T16:58:41;11.25;;;6.95;;
29634;SDS011;16557;54.762;56.068;2023-02-22T17:01:10;10.13;;;6.42;;
29634;SDS011;16557;54.762;56.068;2023-02-22T17:03:39;19.85;;;7.47;;
29634;SDS011;16557;54.762;56.068;2023-02-22T17:06:09;13.93;;;8.25;;
29634;SDS011;16557;54.762;56.068;2023-02-22T17:08:38;10.23;;;7.40;;
29634;SDS011;16557;54.762;56.068;2023-02-22T17:11:08;9.83;;;7.67;;
29634;SDS011;16557;54.762;56.068;2023-02-22T17:13:39;13.43;;;7.67;;
29634;SDS011;16557;54.762;56.068;2023-02-22T17:16:13;11.70;;;7.78;;
29634;SDS011;16557;54.762;56.068;2023-02-22T17:18:40;11.95;;;7.67;;
29634;SDS011;16557;54.762;56.068;2023-02-22T17:21:11;10.53;;;7.35;;
29634;SDS011;16557;54.762;56.068;2023-02-22T17:23:42;10.82;;;7.30;;
29634;SDS011;16557;54.762;56.068;2023-02-22T17:26:14;10.80;;;7.08;;
29634;SDS011;16557;54.762;56.068;2023-02-22T17:28:43;10.35;;;7.33;;
29634;SDS011;16557;54.762;56.068;2023-02-22T17:31:20;11.12;;;7.53;;
29634;SDS011;16557;54.762;56.068;2023-02-22T17:33:59;11.80;;;8.08;;